Time;durP1;ratioP1;P1;durP2;ratioP2;P2;SDS_P1;SDS_P2;PMS_P1;PMS_P2;Temp;Humidity;BMP_temperature;BMP_pressure;BME280_temperature;BME280_humidity;BME280_pressure;Samples;Min_cycle;Max_cycle;Signal;HPM_P1;HPM_P2
2023/09/11 00:00:32;;;;;;;10.43;6.60;;;;;;;;;;5068991;28;20530;-81
2023/09/11 00:02:57;;;;;;;12.45;6.45;;;;;;;;;;5068846;28;20024;-80
2023/09/11 00:05:22;;;;;;;10.40;6.35;;;;;;;;;;5068537;28;20026;-81
2023/09/11 00:07:48;;;;;;;13.63;6.85;;;;;;;;;;5066898;28;20052;-80
2023/09/11 00:10:14;;;;;;;12.85;6.38;;;;;;;;;;5068100;28;20586;-80
2023/09/11 00:12:39;;;;;;;13.63;6.63;;;;;;;;;;5069179;28;20024;-80
2023/09/11 00:15:05;;;;;;;10.02;6.55;;;;;;;;;;5068148;28;20476;-78
2023/09/11 00:17:31;;;;;;;10.35;6.63;;;;;;;;;;5060256;28;20027;-77
2023/09/11 00:19:56;;;;;;;9.32;6.72;;;;;;;;;;5068760;28;20029;-78
2023/09/11 00:22:21;;;;;;;11.85;6.85;;;;;;;;;;5067206;28;20516;-79
2023/09/11 00:24:47;;;;;;;10.35;7.20;;;;;;;;;;5067981;28;20125;-77
2023/09/11 00:27:12;;;;;;;15.05;7.15;;;;;;;;;;5068542;28;20025;-79
2023/09/11 00:29:38;;;;;;;10.77;6.90;;;;;;;;;;5068661;28;20039;-78
2023/09/11 00:32:03;;;;;;;11.70;6.70;;;;;;;;;;5068683;28;20029;-79
2023/09/11 00:34:32;;;;;;;15.05;7.88;;;;;;;;;;5068433;28;20017;-79
2023/09/11 00:36:57;;;;;;;76.97;31.05;;;;;;;;;;5068975;28;20030;-78
2023/09/11 00:39:23;;;;;;;48.47;21.85;;;;;;;;;;5067827;28;20052;-78
2023/09/11 00:41:48;;;;;;;27.20;14.90;;;;;;;;;;5068472;28;20396;-77
2023/09/11 00:44:14;;;;;;;18.48;9.98;;;;;;;;;;5068306;28;20039;-78
2023/09/11 00:46:40;;;;;;;15.68;8.93;;;;;;;;;;5070667;28;20052;-77
2023/09/11 00:49:06;;;;;;;13.00;8.20;;;;;;;;;;5069049;28;20025;-81
2023/09/11 00:51:32;;;;;;;12.27;7.88;;;;;;;;;;5068558;28;20017;-78
2023/09/11 00:53:58;;;;;;;14.70;7.47;;;;;;;;;;5067730;28;20040;-80
2023/09/11 00:56:23;;;;;;;11.35;7.05;;;;;;;;;;5068580;28;20111;-81
2023/09/11 00:58:50;;;;;;;9.90;7.18;;;;;;;;;;5066218;28;20122;-80
2023/09/11 01:01:15;;;;;;;11.75;7.18;;;;;;;;;;5068016;28;20036;-80
2023/09/11 01:03:41;;;;;;;12.55;7.60;;;;;;;;;;5066800;28;20033;-81
2023/09/11 01:06:07;;;;;;;11.18;7.10;;;;;;;;;;5067138;28;20028;-80
2023/09/11 01:08:32;;;;;;;11.02;6.90;;;;;;;;;;5069114;28;20031;-80
2023/09/11 01:10:58;;;;;;;11.00;7.40;;;;;;;;;;5071513;28;20024;-80
2023/09/11 01:13:24;;;;;;;11.68;7.20;;;;;;;;;;5071899;28;20032;-80
2023/09/11 01:16:10;;;;;;;10.10;7.28;;;;;;;;;;5071166;28;20032;-80
2023/09/11 01:19:18;;;;;;;11.10;7.40;;;;;;;;;;5071631;28;20031;-80
2023/09/11 01:21:49;;;;;;;15.73;7.53;;;;;;;;;;5069082;28;20106;-80
2023/09/11 01:24:36;;;;;;;10.73;6.90;;;;;;;;;;5071219;28;20091;-81
2023/09/11 01:27:36;;;;;;;13.48;7.15;;;;;;;;;;5059748;28;20032;-80
2023/09/11 01:30:04;;;;;;;13.15;7.20;;;;;;;;;;5062136;28;20389;-81
2023/09/11 01:32:30;;;;;;;9.57;6.82;;;;;;;;;;5071006;28;20064;-80
2023/09/11 01:34:55;;;;;;;10.88;7.35;;;;;;;;;;5071180;28;20063;-80
2023/09/11 01:37:20;;;;;;;11.88;7.30;;;;;;;;;;5071251;28;20033;-80
2023/09/11 01:39:46;;;;;;;14.88;7.68;;;;;;;;;;5071045;28;20033;-80
2023/09/11 01:42:18;;;;;;;11.23;7.18;;;;;;;;;;5071106;28;20024;-79
2023/09/11 01:44:46;;;;;;;14.63;8.10;;;;;;;;;;5071612;28;20047;-81
2023/09/11 01:47:15;;;;;;;14.02;7.15;;;;;;;;;;5071240;28;20384;-80
2023/09/11 01:49:42;;;;;;;11.90;7.38;;;;;;;;;;5071248;28;20134;-81
2023/09/11 01:52:10;;;;;;;10.32;7.43;;;;;;;;;;5070548;28;20079;-81
2023/09/11 01:54:36;;;;;;;11.63;7.85;;;;;;;;;;5071156;28;20029;-81
2023/09/11 01:57:03;;;;;;;11.85;7.35;;;;;;;;;;5070009;28;20045;-80
2023/09/11 01:59:28;;;;;;;11.40;7.28;;;;;;;;;;5071011;28;20075;-80
2023/09/11 02:01:53;;;;;;;13.85;7.32;;;;;;;;;;5071073;28;20048;-81
2023/09/11 02:04:19;;;;;;;11.00;7.63;;;;;;;;;;5070912;28;20536;-81
2023/09/11 02:06:44;;;;;;;10.20;7.75;;;;;;;;;;5070769;28;20024;-79
2023/09/11 02:09:10;;;;;;;10.95;7.50;;;;;;;;;;5069933;28;20036;-81
2023/09/11 02:11:35;;;;;;;12.65;7.55;;;;;;;;;;5070802;28;20028;-82
2023/09/11 02:14:00;;;;;;;13.18;7.63;;;;;;;;;;5062027;28;20037;-80
2023/09/11 02:16:26;;;;;;;11.90;7.80;;;;;;;;;;5064542;28;20478;-81
2023/09/11 02:18:51;;;;;;;14.77;7.60;;;;;;;;;;5070562;28;20048;-80
2023/09/11 02:21:16;;;;;;;13.85;7.95;;;;;;;;;;5069668;28;20421;-81
2023/09/11 02:23:42;;;;;;;13.57;8.77;;;;;;;;;;5075497;28;20051;-82
2023/09/11 02:26:08;;;;;;;12.35;7.80;;;;;;;;;;5071989;28;20513;-81
2023/09/11 02:28:33;;;;;;;12.57;7.43;;;;;;;;;;5067774;28;20078;-79
2023/09/11 02:30:58;;;;;;;10.30;7.70;;;;;;;;;;5060336;28;20025;-80
2023/09/11 02:33:24;;;;;;;11.52;7.45;;;;;;;;;;5063173;28;20028;-80
2023/09/11 02:35:56;;;;;;;12.88;7.43;;;;;;;;;;5068290;28;20028;-81
2023/09/11 02:38:22;;;;;;;9.80;7.53;;;;;;;;;;5063301;28;20056;-81
2023/09/11 02:40:47;;;;;;;10.15;7.53;;;;;;;;;;5070342;28;20146;-81
2023/09/11 02:43:12;;;;;;;12.77;8.07;;;;;;;;;;5069496;28;20025;-80
2023/09/11 02:45:38;;;;;;;13.07;8.20;;;;;;;;;;5070226;28;20111;-80
2023/09/11 02:48:03;;;;;;;13.13;7.97;;;;;;;;;;5069869;28;20020;-81
2023/09/11 02:50:29;;;;;;;11.95;7.78;;;;;;;;;;5078346;28;20111;-80
2023/09/11 02:52:55;;;;;;;11.32;7.72;;;;;;;;;;5069549;28;20119;-80
2023/09/11 02:55:20;;;;;;;9.82;7.80;;;;;;;;;;5077741;28;20044;-80
2023/09/11 02:57:46;;;;;;;12.50;7.93;;;;;;;;;;5079406;28;20040;-80
2023/09/11 03:00:11;;;;;;;10.68;7.72;;;;;;;;;;5069849;28;20044;-80
2023/09/11 03:02:37;;;;;;;10.77;7.80;;;;;;;;;;5070225;28;20125;-79
2023/09/11 03:05:03;;;;;;;10.43;7.95;;;;;;;;;;5069620;28;20024;-80
2023/09/11 03:07:28;;;;;;;10.38;7.72;;;;;;;;;;5074754;28;20055;-81
2023/09/11 03:09:54;;;;;;;9.65;7.43;;;;;;;;;;5071570;28;20419;-79
2023/09/11 03:12:19;;;;;;;11.05;7.93;;;;;;;;;;5068652;28;20150;-80
2023/09/11 03:14:44;;;;;;;14.05;7.75;;;;;;;;;;5078010;28;20055;-78
2023/09/11 03:17:10;;;;;;;12.68;7.63;;;;;;;;;;5073524;28;20028;-79
2023/09/11 03:19:36;;;;;;;11.82;7.45;;;;;;;;;;5069786;28;20095;-80
2023/09/11 03:22:02;;;;;;;10.52;7.85;;;;;;;;;;5075992;28;20032;-81
2023/09/11 03:24:27;;;;;;;14.85;8.70;;;;;;;;;;5077194;28;20031;-80
2023/09/11 03:26:52;;;;;;;12.02;8.23;;;;;;;;;;5074132;28;20101;-82
2023/09/11 03:29:18;;;;;;;13.27;7.78;;;;;;;;;;5072578;28;20190;-80
2023/09/11 03:31:43;;;;;;;12.40;8.02;;;;;;;;;;5067236;28;20025;-80
2023/09/11 03:34:09;;;;;;;11.93;7.95;;;;;;;;;;5073676;28;20295;-80
2023/09/11 03:36:34;;;;;;;13.35;8.00;;;;;;;;;;5069583;28;20432;-80
2023/09/11 03:38:59;;;;;;;11.85;8.23;;;;;;;;;;5068743;28;20112;-81
2023/09/11 03:41:25;;;;;;;12.05;7.57;;;;;;;;;;5068221;28;20041;-80
2023/09/11 03:43:50;;;;;;;11.88;8.00;;;;;;;;;;5066017;28;20687;-79
2023/09/11 03:46:16;;;;;;;10.63;7.82;;;;;;;;;;5071861;28;20024;-80
2023/09/11 03:48:41;;;;;;;11.65;8.05;;;;;;;;;;5071207;28;20530;-78
2023/09/11 03:51:06;;;;;;;11.52;7.60;;;;;;;;;;5072807;28;20038;-80
2023/09/11 03:53:32;;;;;;;9.77;7.82;;;;;;;;;;5076163;28;20025;-79
2023/09/11 03:55:58;;;;;;;15.30;8.23;;;;;;;;;;5068828;28;20021;-79
2023/09/11 03:58:23;;;;;;;13.07;8.10;;;;;;;;;;5068548;28;20047;-80
2023/09/11 04:00:48;;;;;;;11.50;7.90;;;;;;;;;;5069054;28;20093;-79
2023/09/11 04:03:14;;;;;;;11.63;7.70;;;;;;;;;;5067043;28;20530;-79
2023/09/11 04:05:39;;;;;;;13.48;8.00;;;;;;;;;;5063665;28;20090;-81
2023/09/11 04:08:05;;;;;;;13.57;7.72;;;;;;;;;;5066984;28;20522;-82
2023/09/11 04:10:30;;;;;;;11.98;8.00;;;;;;;;;;5068627;28;20063;-82
2023/09/11 04:12:55;;;;;;;10.25;7.45;;;;;;;;;;5068977;28;20098;-81
2023/09/11 04:15:21;;;;;;;10.45;7.60;;;;;;;;;;5072069;28;20132;-80
2023/09/11 04:17:46;;;;;;;12.95;7.95;;;;;;;;;;5079659;28;20035;-81
2023/09/11 04:20:11;;;;;;;14.45;7.93;;;;;;;;;;5068897;28;20025;-81
2023/09/11 04:22:37;;;;;;;12.75;8.10;;;;;;;;;;5068444;28;20028;-80
2023/09/11 04:25:03;;;;;;;12.18;7.75;;;;;;;;;;5068294;28;20025;-82
2023/09/11 04:27:28;;;;;;;11.82;7.85;;;;;;;;;;5068729;28;20016;-80
2023/09/11 04:29:56;;;;;;;11.55;7.47;;;;;;;;;;5079772;28;20031;-82
2023/09/11 04:32:21;;;;;;;16.58;7.50;;;;;;;;;;5075424;28;20017;-81
2023/09/11 04:34:47;;;;;;;13.00;7.35;;;;;;;;;;5078167;28;20055;-80
2023/09/11 04:37:13;;;;;;;11.70;7.43;;;;;;;;;;5080095;28;20032;-80
2023/09/11 04:39:39;;;;;;;13.43;7.22;;;;;;;;;;5074452;28;20060;-81
2023/09/11 04:42:04;;;;;;;15.75;7.45;;;;;;;;;;5080556;28;20036;-79
2023/09/11 04:44:30;;;;;;;14.88;7.70;;;;;;;;;;5083575;28;20016;-81
2023/09/11 04:46:55;;;;;;;12.27;7.63;;;;;;;;;;5074896;28;20377;-81
2023/09/11 04:49:20;;;;;;;12.15;7.32;;;;;;;;;;5072917;28;20055;-81
2023/09/11 04:51:46;;;;;;;12.23;6.90;;;;;;;;;;5081867;28;20081;-81
2023/09/11 04:54:11;;;;;;;15.43;7.05;;;;;;;;;;5077581;28;20225;-80
2023/09/11 04:56:36;;;;;;;13.75;7.03;;;;;;;;;;5078763;28;20150;-79
2023/09/11 04:59:02;;;;;;;11.13;7.45;;;;;;;;;;5081727;28;20213;-81
2023/09/11 05:01:27;;;;;;;12.50;7.35;;;;;;;;;;5080776;28;20036;-81
2023/09/11 05:03:52;;;;;;;13.00;7.30;;;;;;;;;;5081790;28;20036;-80
2023/09/11 05:06:18;;;;;;;14.02;7.30;;;;;;;;;;5072391;28;20037;-80
2023/09/11 05:08:43;;;;;;;12.20;7.57;;;;;;;;;;5076808;28;20052;-79
2023/09/11 05:11:08;;;;;;;14.65;7.13;;;;;;;;;;5072747;28;20032;-80
2023/09/11 05:13:34;;;;;;;10.55;7.38;;;;;;;;;;5062110;28;20086;-79
2023/09/11 05:15:59;;;;;;;15.57;7.20;;;;;;;;;;5070218;28;20098;-79
2023/09/11 05:18:24;;;;;;;14.93;7.47;;;;;;;;;;5060871;28;20032;-79
2023/09/11 05:20:50;;;;;;;10.70;7.20;;;;;;;;;;5071984;28;20025;-79
2023/09/11 05:23:19;;;;;;;12.50;7.82;;;;;;;;;;5069199;28;20536;-79
2023/09/11 05:25:44;;;;;;;12.20;7.50;;;;;;;;;;5064846;28;20029;-77
2023/09/11 05:28:11;;;;;;;16.17;7.97;;;;;;;;;;5068615;28;20523;-79
2023/09/11 05:30:38;;;;;;;16.92;8.00;;;;;;;;;;5071479;28;20032;-81
2023/09/11 05:33:04;;;;;;;15.38;7.28;;;;;;;;;;5067041;28;20572;-81
2023/09/11 05:35:31;;;;;;;12.10;7.32;;;;;;;;;;5069272;28;20116;-81
2023/09/11 05:37:57;;;;;;;13.75;7.45;;;;;;;;;;5068042;28;20472;-80
2023/09/11 05:40:22;;;;;;;13.95;8.00;;;;;;;;;;5069030;28;20074;-80
2023/09/11 05:42:48;;;;;;;11.85;7.07;;;;;;;;;;5067739;28;20020;-79
2023/09/11 05:45:13;;;;;;;12.32;7.40;;;;;;;;;;5067234;28;20020;-78
2023/09/11 05:47:39;;;;;;;16.27;7.28;;;;;;;;;;5065999;28;20609;-78
2023/09/11 05:50:05;;;;;;;11.23;7.15;;;;;;;;;;5070620;28;20047;-79
2023/09/11 05:52:30;;;;;;;11.68;6.82;;;;;;;;;;5068289;28;20485;-79
2023/09/11 05:54:56;;;;;;;12.75;7.30;;;;;;;;;;5063047;28;20091;-79
2023/09/11 05:57:21;;;;;;;12.43;6.60;;;;;;;;;;5074930;28;20037;-78
2023/09/11 05:59:47;;;;;;;15.10;6.95;;;;;;;;;;5071820;28;20044;-79
2023/09/11 06:02:12;;;;;;;11.07;6.47;;;;;;;;;;5062778;28;20035;-78
2023/09/11 06:04:38;;;;;;;13.95;6.88;;;;;;;;;;5072508;28;20037;-79
2023/09/11 06:07:03;;;;;;;13.30;7.20;;;;;;;;;;5069466;28;20098;-78
2023/09/11 06:09:29;;;;;;;18.10;7.38;;;;;;;;;;5068199;28;20564;-79
2023/09/11 06:11:55;;;;;;;11.38;7.10;;;;;;;;;;5069827;28;20032;-79
2023/09/11 06:14:20;;;;;;;11.52;6.97;;;;;;;;;;5056170;28;20032;-80
2023/09/11 06:16:45;;;;;;;10.48;6.47;;;;;;;;;;5067972;28;20095;-80
2023/09/11 06:19:11;;;;;;;11.93;6.50;;;;;;;;;;5070429;28;20159;-78
2023/09/11 06:21:36;;;;;;;12.77;6.60;;;;;;;;;;5070464;28;20040;-80
2023/09/11 06:24:04;;;;;;;15.48;8.07;;;;;;;;;;5069796;28;20028;-75
2023/09/11 06:26:29;;;;;;;15.73;7.88;;;;;;;;;;5068571;28;20020;-75
2023/09/11 06:28:55;;;;;;;18.10;9.02;;;;;;;;;;5070099;28;20028;-74
2023/09/11 06:31:21;;;;;;;19.92;8.88;;;;;;;;;;5069963;28;20658;-82
2023/09/11 06:33:46;;;;;;;17.52;8.70;;;;;;;;;;5070113;28;20020;-82
2023/09/11 06:36:13;;;;;;;22.55;8.13;;;;;;;;;;5069756;28;20090;-83
2023/09/11 06:38:38;;;;;;;17.92;8.27;;;;;;;;;;5070049;28;20127;-82
2023/09/11 06:41:04;;;;;;;21.85;8.90;;;;;;;;;;5069506;28;20154;-80
2023/09/11 06:43:29;;;;;;;23.23;9.30;;;;;;;;;;5065407;28;20082;-79
2023/09/11 06:45:54;;;;;;;19.80;8.65;;;;;;;;;;5070179;28;20036;-79
2023/09/11 06:48:21;;;;;;;19.92;8.43;;;;;;;;;;5061639;28;20159;-79
2023/09/11 06:50:47;;;;;;;17.73;8.27;;;;;;;;;;5061274;28;20032;-79
2023/09/11 06:53:13;;;;;;;23.08;8.35;;;;;;;;;;5064265;28;20024;-79
2023/09/11 06:55:46;;;;;;;18.15;7.47;;;;;;;;;;5070072;28;20029;-79
2023/09/11 06:58:12;;;;;;;19.73;7.57;;;;;;;;;;5069280;28;20053;-79
2023/09/11 07:00:37;;;;;;;14.23;7.55;;;;;;;;;;5069807;28;20103;-79
2023/09/11 07:03:03;;;;;;;17.52;7.18;;;;;;;;;;5062586;28;20033;-82
2023/09/11 07:05:28;;;;;;;20.10;7.72;;;;;;;;;;5063388;28;20074;-81
2023/09/11 07:07:53;;;;;;;19.60;7.47;;;;;;;;;;5065317;28;20097;-82
2023/09/11 07:10:19;;;;;;;13.95;7.07;;;;;;;;;;5057629;28;20474;-81
2023/09/11 07:12:45;;;;;;;18.33;7.53;;;;;;;;;;5070083;28;20085;-82
2023/09/11 07:15:11;;;;;;;18.98;7.53;;;;;;;;;;5057149;28;20028;-82
2023/09/11 07:17:36;;;;;;;19.80;7.15;;;;;;;;;;5061175;28;20091;-82
2023/09/11 07:20:04;;;;;;;12.68;6.93;;;;;;;;;;5065565;28;20040;-83
2023/09/11 07:22:30;;;;;;;12.80;6.75;;;;;;;;;;5070135;28;20028;-83
2023/09/11 07:24:55;;;;;;;12.20;6.40;;;;;;;;;;5066361;28;20024;-82
2023/09/11 07:27:21;;;;;;;13.13;6.45;;;;;;;;;;5071694;28;20104;-81
2023/09/11 07:29:47;;;;;;;13.30;6.38;;;;;;;;;;5063766;28;20021;-81
2023/09/11 07:32:12;;;;;;;11.63;6.35;;;;;;;;;;5058325;28;20029;-83
2023/09/11 07:34:37;;;;;;;15.18;6.40;;;;;;;;;;5061591;28;20025;-84
2023/09/11 07:37:03;;;;;;;12.07;6.55;;;;;;;;;;5071173;28;20036;-83
2023/09/11 07:39:29;;;;;;;18.55;7.00;;;;;;;;;;5069918;28;20020;-83
2023/09/11 07:41:54;;;;;;;15.25;6.38;;;;;;;;;;5068510;28;20026;-83
2023/09/11 07:44:20;;;;;;;15.70;6.32;;;;;;;;;;5062562;28;20108;-84
2023/09/11 07:46:45;;;;;;;13.82;6.22;;;;;;;;;;5070798;28;20017;-81
2023/09/11 07:49:10;;;;;;;14.65;6.25;;;;;;;;;;5069266;28;20033;-84
2023/09/11 07:51:36;;;;;;;15.10;5.85;;;;;;;;;;5072527;28;20043;-81
2023/09/11 07:54:04;;;;;;;14.40;6.10;;;;;;;;;;5068141;28;20051;-85
2023/09/11 07:56:29;;;;;;;14.90;5.85;;;;;;;;;;5069027;28;20502;-84
2023/09/11 07:58:55;;;;;;;12.75;6.00;;;;;;;;;;5071906;28;20036;-80
2023/09/11 08:01:21;;;;;;;15.23;5.60;;;;;;;;;;5070504;28;20091;-84
2023/09/11 08:03:47;;;;;;;15.52;5.60;;;;;;;;;;5071734;28;20035;-82
2023/09/11 08:06:13;;;;;;;14.73;5.47;;;;;;;;;;5067744;28;20061;-83
2023/09/11 08:08:39;;;;;;;12.20;5.28;;;;;;;;;;5066812;28;20035;-82
2023/09/11 08:11:20;;;;;;;15.43;5.70;;;;;;;;;;5062716;28;20094;-82
2023/09/11 08:13:47;;;;;;;11.32;5.60;;;;;;;;;;5059070;28;20625;-84
2023/09/11 08:16:13;;;;;;;12.80;5.85;;;;;;;;;;5069099;28;20078;-85
2023/09/11 08:18:38;;;;;;;14.60;5.63;;;;;;;;;;5068621;28;20033;-83
2023/09/11 08:21:04;;;;;;;16.83;5.40;;;;;;;;;;5068763;28;20032;-84
2023/09/11 08:23:30;;;;;;;13.27;5.10;;;;;;;;;;5068403;28;20098;-84
2023/09/11 08:25:56;;;;;;;10.45;5.47;;;;;;;;;;5068289;28;20079;-83
2023/09/11 08:28:22;;;;;;;13.40;5.80;;;;;;;;;;5069731;28;20035;-82
2023/09/11 08:30:47;;;;;;;15.27;6.22;;;;;;;;;;5072615;28;20029;-83
2023/09/11 08:33:13;;;;;;;12.23;5.78;;;;;;;;;;5069257;28;20016;-83
2023/09/11 08:35:38;;;;;;;12.02;5.70;;;;;;;;;;5067771;28;20071;-82
2023/09/11 08:38:04;;;;;;;12.93;5.40;;;;;;;;;;5066897;28;20024;-84
2023/09/11 08:40:32;;;;;;;13.95;5.50;;;;;;;;;;5068774;28;20029;-83
2023/09/11 08:42:58;;;;;;;11.82;5.82;;;;;;;;;;5068536;28;20040;-83
2023/09/11 08:45:25;;;;;;;13.30;5.82;;;;;;;;;;5068265;28;20028;-81
2023/09/11 08:47:57;;;;;;;17.75;5.97;;;;;;;;;;5068284;28;20035;-82
2023/09/11 08:50:30;;;;;;;16.95;5.63;;;;;;;;;;5068381;28;20064;-82
2023/09/11 08:52:58;;;;;;;13.40;6.07;;;;;;;;;;5055439;28;20039;-84
2023/09/11 08:55:24;;;;;;;14.32;6.03;;;;;;;;;;5067933;28;20029;-83
2023/09/11 08:57:50;;;;;;;18.08;6.38;;;;;;;;;;5066904;28;20128;-82
2023/09/11 09:00:16;;;;;;;16.02;6.07;;;;;;;;;;5068489;28;20100;-82
2023/09/11 09:02:42;;;;;;;18.25;5.82;;;;;;;;;;5067852;28;20028;-83
2023/09/11 09:05:08;;;;;;;14.07;5.95;;;;;;;;;;5068229;28;20033;-82
2023/09/11 09:07:34;;;;;;;12.45;6.20;;;;;;;;;;5067913;28;20062;-84
2023/09/11 09:10:02;;;;;;;12.63;5.90;;;;;;;;;;5067937;28;20061;-83
2023/09/11 09:12:28;;;;;;;12.80;5.85;;;;;;;;;;5066913;28;20452;-83
2023/09/11 09:14:54;;;;;;;13.80;5.75;;;;;;;;;;5067730;28;20532;-82
2023/09/11 09:17:20;;;;;;;12.02;5.63;;;;;;;;;;5068671;28;20035;-83
2023/09/11 09:19:45;;;;;;;12.52;5.75;;;;;;;;;;5059517;28;20025;-82
2023/09/11 09:22:12;;;;;;;15.15;5.47;;;;;;;;;;5054870;28;20025;-82
2023/09/11 09:24:50;;;;;;;16.58;5.95;;;;;;;;;;5064702;28;20036;-82
2023/09/11 09:27:16;;;;;;;11.88;5.68;;;;;;;;;;5067730;28;20112;-83
2023/09/11 09:29:41;;;;;;;12.90;5.57;;;;;;;;;;5066317;28;20553;-88
2023/09/11 09:32:08;;;;;;;12.05;5.50;;;;;;;;;;5070662;28;20024;-85
2023/09/11 09:34:35;;;;;;;14.05;6.03;;;;;;;;;;5071265;28;20031;-85
2023/09/11 09:37:01;;;;;;;16.23;5.85;;;;;;;;;;5071603;28;20651;-87
2023/09/11 09:39:28;;;;;;;18.00;6.03;;;;;;;;;;5070883;28;20025;-86
2023/09/11 09:41:55;;;;;;;11.60;5.38;;;;;;;;;;5071758;28;20021;-87
2023/09/11 09:44:31;;;;;;;10.45;5.60;;;;;;;;;;5062857;28;20798;-88
2023/09/11 09:47:06;;;;;;;15.82;5.57;;;;;;;;;;5069164;28;20032;-82
2023/09/11 09:49:41;;;;;;;14.13;5.70;;;;;;;;;;5069938;28;20017;-86
2023/09/11 09:52:07;;;;;;;13.20;5.47;;;;;;;;;;5069015;28;20028;-86
2023/09/11 09:54:56;;;;;;;17.77;5.93;;;;;;;;;;5057131;28;20040;-87
2023/09/11 09:57:24;;;;;;;19.80;5.78;;;;;;;;;;5071198;28;20045;-83
2023/09/11 09:59:52;;;;;;;12.05;5.78;;;;;;;;;;5071037;28;20028;-84
2023/09/11 10:02:38;;;;;;;10.10;5.63;;;;;;;;;;5070920;28;20032;-83
2023/09/11 10:05:08;;;;;;;12.55;5.60;;;;;;;;;;5070414;28;20159;-86
2023/09/11 10:07:45;;;;;;;12.48;5.68;;;;;;;;;;5070460;28;20035;-88
2023/09/11 10:10:26;;;;;;;10.85;5.68;;;;;;;;;;5069866;28;20032;-83
2023/09/11 10:13:06;;;;;;;10.82;5.55;;;;;;;;;;5071178;28;20029;-83
2023/09/11 10:15:33;;;;;;;12.02;5.68;;;;;;;;;;5056647;28;20063;-85
2023/09/11 10:18:00;;;;;;;9.13;5.45;;;;;;;;;;5070334;28;20481;-88
2023/09/11 10:20:26;;;;;;;11.95;5.63;;;;;;;;;;5071202;28;20038;-89
2023/09/11 10:22:57;;;;;;;12.40;5.60;;;;;;;;;;5071793;28;20031;-85
2023/09/11 10:25:23;;;;;;;9.70;5.60;;;;;;;;;;5069441;28;20412;-87
2023/09/11 10:27:50;;;;;;;11.05;5.45;;;;;;;;;;5072061;28;20016;-86
2023/09/11 10:30:20;;;;;;;10.77;5.55;;;;;;;;;;5068172;28;20510;-87
2023/09/11 10:32:57;;;;;;;8.93;5.40;;;;;;;;;;5070044;28;20032;-87
2023/09/11 10:35:24;;;;;;;11.35;5.43;;;;;;;;;;5069999;28;20525;-85
2023/09/11 10:37:56;;;;;;;11.57;5.50;;;;;;;;;;5068853;28;20039;-85
2023/09/11 10:40:23;;;;;;;10.70;5.22;;;;;;;;;;5069791;28;20028;-84
2023/09/11 10:42:48;;;;;;;7.80;5.30;;;;;;;;;;5069759;28;20031;-88
2023/09/11 10:45:27;;;;;;;9.80;5.10;;;;;;;;;;5059381;28;20021;-86
2023/09/11 10:47:53;;;;;;;11.55;5.35;;;;;;;;;;5069480;28;20073;-82
2023/09/11 10:50:18;;;;;;;13.98;5.10;;;;;;;;;;5070569;28;20025;-84
2023/09/11 10:52:47;;;;;;;10.88;5.00;;;;;;;;;;5069649;28;20069;-86
2023/09/11 10:55:15;;;;;;;11.43;5.05;;;;;;;;;;5069934;28;20032;-87
2023/09/11 10:57:40;;;;;;;8.60;4.80;;;;;;;;;;5069610;28;20032;-82
2023/09/11 11:00:09;;;;;;;12.52;4.43;;;;;;;;;;5069137;28;20032;-87
2023/09/11 11:02:34;;;;;;;8.32;5.00;;;;;;;;;;5069579;28;20033;-83
2023/09/11 11:05:00;;;;;;;7.55;4.72;;;;;;;;;;5069509;28;20024;-84
2023/09/11 11:07:27;;;;;;;9.05;4.70;;;;;;;;;;5067383;28;20036;-85
2023/09/11 11:09:53;;;;;;;10.45;4.68;;;;;;;;;;5069780;28;20068;-86
2023/09/11 11:12:31;;;;;;;9.23;4.43;;;;;;;;;;5069819;28;20052;-88
2023/09/11 11:15:19;;;;;;;10.43;4.70;;;;;;;;;;5067907;28;20036;-86
2023/09/11 11:17:44;;;;;;;10.90;4.53;;;;;;;;;;5069171;28;20024;-84
2023/09/11 11:20:11;;;;;;;6.38;4.40;;;;;;;;;;5069061;28;20040;-83
2023/09/11 11:22:40;;;;;;;10.65;4.93;;;;;;;;;;5068388;28;20081;-86
2023/09/11 11:25:10;;;;;;;6.65;4.70;;;;;;;;;;5069433;28;20078;-84
2023/09/11 11:27:39;;;;;;;12.68;4.85;;;;;;;;;;5069332;28;20020;-83
2023/09/11 11:30:05;;;;;;;9.30;5.00;;;;;;;;;;5069567;28;20133;-87
2023/09/11 11:32:32;;;;;;;12.48;4.97;;;;;;;;;;5068784;28;20077;-85
2023/09/11 11:35:01;;;;;;;12.02;5.10;;;;;;;;;;5069124;28;20067;-84
2023/09/11 11:37:26;;;;;;;10.23;5.28;;;;;;;;;;5068823;28;20020;-84
2023/09/11 11:39:52;;;;;;;7.47;4.82;;;;;;;;;;5068966;28;20127;-80
2023/09/11 11:42:19;;;;;;;8.25;5.03;;;;;;;;;;5069109;28;20047;-85
2023/09/11 11:44:45;;;;;;;17.00;5.28;;;;;;;;;;5068983;28;20025;-85
2023/09/11 11:47:10;;;;;;;10.13;4.80;;;;;;;;;;5067840;28;20034;-84
2023/09/11 11:49:36;;;;;;;8.40;4.32;;;;;;;;;;5068976;28;20096;-84
2023/09/11 11:52:03;;;;;;;11.60;4.55;;;;;;;;;;5067941;28;20457;-80
2023/09/11 11:54:29;;;;;;;10.05;4.50;;;;;;;;;;5068910;28;20036;-86
2023/09/11 11:57:03;;;;;;;9.50;4.43;;;;;;;;;;5068600;28;20052;-79
2023/09/11 11:59:41;;;;;;;11.50;4.40;;;;;;;;;;5068738;28;20025;-85
2023/09/11 12:02:22;;;;;;;9.18;4.30;;;;;;;;;;5068980;28;20161;-83
2023/09/11 12:04:53;;;;;;;6.05;4.20;;;;;;;;;;5068741;28;20036;-86
2023/09/11 12:07:19;;;;;;;8.70;4.57;;;;;;;;;;5068491;28;20036;-85
2023/09/11 12:09:44;;;;;;;7.63;4.53;;;;;;;;;;5068404;28;20028;-84
2023/09/11 12:12:10;;;;;;;8.80;4.60;;;;;;;;;;5067098;28;20120;-82
2023/09/11 12:14:36;;;;;;;15.75;4.80;;;;;;;;;;5068941;28;20579;-86
2023/09/11 12:17:02;;;;;;;13.20;4.70;;;;;;;;;;5068670;28;20082;-89
2023/09/11 12:19:27;;;;;;;10.18;4.80;;;;;;;;;;5064324;28;20393;-82
2023/09/11 12:21:56;;;;;;;8.45;4.93;;;;;;;;;;5079127;28;20090;-81
2023/09/11 12:24:22;;;;;;;9.27;4.53;;;;;;;;;;5068327;28;20080;-80
2023/09/11 12:26:47;;;;;;;10.45;4.45;;;;;;;;;;5068644;28;20103;-83
2023/09/11 12:29:13;;;;;;;15.38;4.65;;;;;;;;;;5068164;28;20399;-81
2023/09/11 12:31:39;;;;;;;11.15;4.55;;;;;;;;;;5068695;28;20029;-81
2023/09/11 12:34:04;;;;;;;9.98;4.75;;;;;;;;;;5068167;28;20043;-81
2023/09/11 12:36:30;;;;;;;11.25;4.88;;;;;;;;;;5068479;28;20020;-85
2023/09/11 12:38:57;;;;;;;7.45;4.63;;;;;;;;;;5065964;28;20028;-81
2023/09/11 12:41:24;;;;;;;9.93;4.75;;;;;;;;;;5068631;28;20024;-81
2023/09/11 12:43:50;;;;;;;9.02;4.57;;;;;;;;;;5068144;28;20043;-80
2023/09/11 12:46:15;;;;;;;11.20;4.78;;;;;;;;;;5068704;28;20021;-86
2023/09/11 12:48:44;;;;;;;11.27;4.68;;;;;;;;;;5066766;28;20150;-83
2023/09/11 12:51:10;;;;;;;9.82;4.80;;;;;;;;;;5068192;28;20017;-83
2023/09/11 12:53:36;;;;;;;9.50;4.50;;;;;;;;;;5067864;28;20031;-81
2023/09/11 12:56:01;;;;;;;10.15;4.65;;;;;;;;;;5068304;28;20012;-84
2023/09/11 12:58:27;;;;;;;12.63;5.07;;;;;;;;;;5067712;28;20048;-81
2023/09/11 13:00:52;;;;;;;10.02;4.88;;;;;;;;;;5068495;28;20120;-85
2023/09/11 13:03:19;;;;;;;14.93;4.55;;;;;;;;;;5069515;28;20036;-85
2023/09/11 13:05:45;;;;;;;6.32;4.20;;;;;;;;;;5072103;28;20101;-82
2023/09/11 13:08:11;;;;;;;8.18;4.45;;;;;;;;;;5070114;28;20488;-85
2023/09/11 13:10:36;;;;;;;10.52;4.10;;;;;;;;;;5071756;28;20063;-84
2023/09/11 13:13:03;;;;;;;8.93;4.30;;;;;;;;;;5071074;28;20028;-85
2023/09/11 13:15:29;;;;;;;7.68;4.30;;;;;;;;;;5071661;28;20108;-90
2023/09/11 13:17:54;;;;;;;8.02;3.97;;;;;;;;;;5067258;28;20106;-89
2023/09/11 13:20:20;;;;;;;9.13;4.03;;;;;;;;;;5060340;28;20021;-90
2023/09/11 13:22:45;;;;;;;7.20;3.67;;;;;;;;;;5070099;28;20021;-88
2023/09/11 13:25:12;;;;;;;8.25;3.80;;;;;;;;;;5072154;28;20020;-88
2023/09/11 13:27:38;;;;;;;9.90;3.80;;;;;;;;;;5071407;28;20028;-88
2023/09/11 13:30:04;;;;;;;5.10;2.83;;;;;;;;;;5071911;28;20483;-90
2023/09/11 13:32:29;;;;;;;5.90;3.20;;;;;;;;;;5071768;28;20028;-88
2023/09/11 13:34:55;;;;;;;5.90;3.33;;;;;;;;;;5065781;28;20032;-79
2023/09/11 13:37:21;;;;;;;9.98;3.33;;;;;;;;;;5069757;28;20028;-79
2023/09/11 13:39:46;;;;;;;14.63;3.10;;;;;;;;;;5074441;28;20024;-83
2023/09/11 13:42:17;;;;;;;6.60;2.90;;;;;;;;;;5073394;28;20409;-81
2023/09/11 13:44:42;;;;;;;9.15;3.53;;;;;;;;;;5080554;28;20035;-83
2023/09/11 13:47:08;;;;;;;10.48;3.50;;;;;;;;;;5082576;28;20021;-83
2023/09/11 13:49:33;;;;;;;6.90;3.28;;;;;;;;;;5082201;28;20024;-85
2023/09/11 13:51:58;;;;;;;11.88;3.40;;;;;;;;;;5082046;28;20024;-85
2023/09/11 13:54:24;;;;;;;9.50;4.00;;;;;;;;;;5082222;28;20320;-83
2023/09/11 13:56:49;;;;;;;6.25;3.85;;;;;;;;;;5082064;28;20057;-83
2023/09/11 13:59:15;;;;;;;6.75;3.72;;;;;;;;;;5081883;28;20064;-85
2023/09/11 14:01:40;;;;;;;7.75;3.50;;;;;;;;;;5079877;28;20036;-82
2023/09/11 14:04:05;;;;;;;10.40;3.53;;;;;;;;;;5080050;28;20275;-82
2023/09/11 14:06:31;;;;;;;7.70;3.90;;;;;;;;;;5074355;28;20394;-82
2023/09/11 14:08:57;;;;;;;8.57;3.72;;;;;;;;;;5081637;28;20020;-84
2023/09/11 14:11:22;;;;;;;6.85;3.70;;;;;;;;;;5067695;28;20103;-81
2023/09/11 14:13:48;;;;;;;8.27;4.00;;;;;;;;;;5066170;28;20117;-81
2023/09/11 14:16:13;;;;;;;8.40;3.88;;;;;;;;;;5077298;28;20192;-81
2023/09/11 14:18:39;;;;;;;6.03;3.85;;;;;;;;;;5063205;28;20031;-84
2023/09/11 14:21:04;;;;;;;5.40;3.88;;;;;;;;;;5072900;28;20100;-82
2023/09/11 14:23:29;;;;;;;7.35;3.88;;;;;;;;;;5063986;28;20025;-83
2023/09/11 14:25:55;;;;;;;7.43;4.03;;;;;;;;;;5094663;28;20082;-82
2023/09/11 14:28:21;;;;;;;9.30;4.22;;;;;;;;;;5067033;28;20043;-83
2023/09/11 14:30:47;;;;;;;9.45;4.25;;;;;;;;;;5060977;28;20025;-84